Time;durP1;ratioP1;P1;durP2;ratioP2;P2;SDS_P1;SDS_P2;PMS_P1;PMS_P2;Temp;Humidity;BMP_temperature;BMP_pressure;BME280_temperature;BME280_humidity;BME280_pressure;Samples;Min_cycle;Max_cycle;Signal;HPM_P1;HPM_P2
2024/01/05 00:02:22;;;;;;;2.20;0.90;;;0.40;99.90;;;-1.28;89.25;100434.41;4929603;28;20426;-79
2024/01/05 00:04:48;;;;;;;3.90;1.58;;;0.40;99.90;;;-1.29;89.53;100439.59;4962842;28;20045;-80
2024/01/05 00:07:16;;;;;;;2.70;1.20;;;0.40;99.90;;;-1.29;89.62;100443.03;4968071;28;20124;-81
2024/01/05 00:09:46;;;;;;;4.25;1.63;;;0.40;99.90;;;-1.26;89.37;100442.16;4942904;28;20060;-80
2024/01/05 00:12:12;;;;;;;2.20;1.08;;;0.40;99.90;;;-1.22;89.76;100449.03;4939200;28;20102;-80
2024/01/05 00:14:38;;;;;;;3.20;1.35;;;0.40;99.90;;;-1.19;89.68;100454.19;4974588;28;20041;-80
2024/01/05 00:17:06;;;;;;;4.97;1.75;;;0.50;99.90;;;-1.14;90.33;100452.47;4956841;28;20592;-81
2024/01/05 00:19:32;;;;;;;3.95;1.55;;;0.50;99.90;;;-1.16;89.87;100446.44;4972137;28;20037;-80
2024/01/05 00:22:00;;;;;;;1.77;1.20;;;0.50;99.90;;;-1.18;89.84;100453.34;4981297;28;20419;-80
2024/01/05 00:24:27;;;;;;;7.10;1.70;;;0.40;99.90;;;-1.21;89.69;100452.47;4930761;28;20047;-82
2024/01/05 00:26:59;;;;;;;4.82;1.92;;;0.40;99.90;;;-1.25;89.63;100446.47;4937919;28;20043;-82
2024/01/05 00:29:24;;;;;;;4.63;1.70;;;0.40;99.90;;;-1.24;89.82;100458.50;4963751;28;20095;-82
2024/01/05 00:31:57;;;;;;;2.85;1.08;;;0.40;99.90;;;-1.25;89.77;100454.22;4958946;28;20040;-81
2024/01/05 00:34:26;;;;;;;5.75;1.90;;;0.40;99.90;;;-1.26;89.30;100452.47;4957208;28;20088;-82
2024/01/05 00:37:01;;;;;;;6.05;2.13;;;0.40;99.90;;;-1.32;89.41;100452.50;4956303;28;20043;-81
2024/01/05 00:39:26;;;;;;;2.58;1.67;;;0.40;99.90;;;-1.34;89.33;100454.22;4929201;28;20045;-82
2024/01/05 00:42:05;;;;;;;;;;;;;;;;;;;;;
2024/01/05 00:44:31;;;;;;;5.05;1.92;;;0.40;99.90;;;-1.31;89.37;100455.09;4966416;28;20254;-81
2024/01/05 00:46:56;;;;;;;5.28;1.88;;;0.40;99.90;;;-1.27;89.58;100449.06;4943035;28;21026;-82
2024/01/05 00:49:34;;;;;;;3.88;1.55;;;0.40;99.90;;;-1.20;89.44;100452.47;4948994;23;20085;-82
2024/01/05 00:52:00;;;;;;;2.35;1.38;;;0.40;99.90;;;-1.16;89.80;100455.91;4885445;28;20526;-81
2024/01/05 00:54:26;;;;;;;2.85;1.30;;;0.50;99.90;;;-1.16;89.69;100449.00;4923786;28;20023;-82
2024/01/05 00:56:59;;;;;;;4.10;1.45;;;0.50;99.90;;;-1.12;90.05;100463.66;4975970;28;20034;-81
2024/01/05 00:59:25;;;;;;;3.00;1.35;;;0.50;99.90;;;-1.14;89.94;100457.63;4892553;28;20042;-84
2024/01/05 01:02:01;;;;;;;;;;;;;;;;;;;;;
2024/01/05 01:04:27;;;;;;;4.32;1.50;;;0.50;99.90;;;-1.19;89.47;100451.59;4864113;28;20685;-83
2024/01/05 01:06:53;;;;;;;3.45;1.17;;;0.40;99.90;;;-1.21;89.62;100455.06;4918641;28;21053;-82
2024/01/05 01:09:19;;;;;;;6.35;1.38;;;0.40;99.90;;;-1.20;89.55;100457.63;4912555;28;20045;-82
2024/01/05 01:11:44;;;;;;;3.22;1.50;;;0.50;99.90;;;-1.17;89.99;100457.63;4917058;28;20037;-83
2024/01/05 01:14:10;;;;;;;4.40;1.20;;;0.50;99.90;;;-1.14;90.12;100462.78;4948036;28;20065;-81
2024/01/05 01:16:36;;;;;;;2.35;1.20;;;0.50;99.90;;;-1.12;90.75;100453.31;4903671;28;20057;-83
2024/01/05 01:19:10;;;;;;;4.55;1.10;;;0.50;99.90;;;-1.14;90.08;100452.47;4917261;28;20042;-82
2024/01/05 01:21:38;;;;;;;2.33;1.50;;;0.50;99.90;;;-1.17;90.06;100452.44;4849641;28;20041;-82
2024/01/05 01:24:10;;;;;;;3.13;1.10;;;0.50;99.90;;;-1.15;89.99;100455.88;4910735;28;20160;-83
2024/01/05 01:26:38;;;;;;;3.15;1.35;;;0.50;99.90;;;-1.14;90.14;100449.03;4914696;28;20051;-82
2024/01/05 01:29:08;;;;;;;2.75;1.00;;;0.50;99.90;;;-1.10;90.31;100459.34;4906596;28;20054;-83
2024/01/05 01:31:57;;;;;;;3.10;1.48;;;0.50;99.90;;;-1.08;90.07;100454.16;4898628;28;20102;-84
2024/01/05 01:34:25;;;;;;;4.95;1.55;;;0.50;99.90;;;-1.09;90.42;100455.03;4878374;28;20038;-82
2024/01/05 01:37:04;;;;;;;5.18;1.40;;;0.50;99.90;;;-1.09;90.33;100462.78;4939091;28;20053;-82
2024/01/05 01:39:30;;;;;;;5.22;1.40;;;0.50;99.90;;;-1.16;90.43;100463.66;4890403;28;20187;-82
2024/01/05 01:42:04;;;;;;;5.15;1.60;;;;;;;-1.20;89.83;100461.94;4875460;28;20042;-83
2024/01/05 01:44:30;;;;;;;2.53;1.10;;;0.50;99.90;;;-1.21;89.71;100471.41;4901558;28;20101;-82
2024/01/05 01:46:57;;;;;;;5.03;1.17;;;0.50;99.90;;;-1.26;90.14;100455.91;4911160;28;20590;-83
2024/01/05 01:49:46;;;;;;;2.85;1.27;;;0.50;99.90;;;-1.24;90.13;100458.50;4903473;28;20113;-83
2024/01/05 01:52:19;;;;;;;3.65;1.42;;;0.40;99.90;;;-1.20;90.35;100464.53;4876514;28;20581;-82
2024/01/05 01:54:51;;;;;;;3.70;1.10;;;0.40;99.90;;;-1.17;90.69;100467.09;4903108;28;20443;-82
2024/01/05 01:57:17;;;;;;;4.72;1.20;;;0.50;99.90;;;-1.18;90.38;100461.06;4927423;28;20176;-82
2024/01/05 01:59:48;;;;;;;2.90;1.00;;;0.50;99.90;;;-1.16;90.02;100464.53;4870981;28;20061;-82
2024/01/05 02:02:20;;;;;;;1.92;1.13;;;0.50;99.90;;;-1.20;90.33;100457.63;4872561;28;20085;-82
2024/01/05 02:04:50;;;;;;;3.35;1.38;;;0.40;99.90;;;-1.28;90.16;100465.41;4896305;28;20091;-83
2024/01/05 02:07:26;;;;;;;;;;;;;;;;;;;;;
2024/01/05 02:09:55;;;;;;;1.38;0.90;;;0.40;99.90;;;-1.36;89.19;100455.94;4860515;28;21598;-82
2024/01/05 02:12:30;;;;;;;5.93;1.15;;;0.40;99.90;;;-1.32;89.19;100457.66;4901651;28;20046;-82
2024/01/05 02:14:58;;;;;;;2.60;0.90;;;0.40;99.90;;;-1.33;88.70;100459.38;4872748;28;20063;-83
2024/01/05 02:17:47;;;;;;;3.22;1.00;;;0.30;99.90;;;-1.35;89.10;100458.53;4888056;28;20976;-82
2024/01/05 02:20:17;;;;;;;3.30;0.85;;;0.30;99.90;;;-1.34;88.66;100459.38;4862528;28;20037;-82
2024/01/05 02:23:24;;;;;;;4.50;0.90;;;0.30;99.90;;;-1.34;88.76;100455.09;4899868;28;20558;-82
2024/01/05 02:25:51;;;;;;;3.13;0.95;;;0.30;99.90;;;-1.38;87.84;100447.34;4922448;28;20042;-81
2024/01/05 02:28:19;;;;;;;1.75;0.73;;;0.30;99.90;;;-1.38;88.32;100447.34;4903042;28;20026;-82
2024/01/05 02:30:56;;;;;;;1.75;0.70;;;;;;;-1.39;88.15;100454.22;4868140;28;20407;-83
2024/01/05 02:33:23;;;;;;;3.13;0.77;;;0.30;99.90;;;-1.40;87.93;100456.81;4914955;28;20081;-82
2024/01/05 02:35:58;;;;;;;3.15;1.10;;;0.30;99.90;;;-1.40;87.99;100454.22;4874103;28;20044;-83
2024/01/05 02:38:26;;;;;;;1.42;0.95;;;0.30;99.90;;;-1.37;87.69;100462.00;4922819;28;20058;-83
2024/01/05 02:41:18;;;;;;;3.40;1.27;;;0.30;99.90;;;-1.38;88.04;100462.84;4857092;28;20048;-82
2024/01/05 02:43:47;;;;;;;1.73;0.80;;;0.30;99.90;;;-1.36;87.88;100459.41;4863162;28;20054;-82
2024/01/05 02:46:21;;;;;;;2.47;1.10;;;0.30;99.90;;;-1.38;88.00;100453.38;4854928;28;20051;-81
2024/01/05 02:48:47;;;;;;;4.05;1.13;;;0.30;99.90;;;-1.35;88.40;100449.94;4859978;28;20044;-81
2024/01/05 02:51:24;;;;;;;3.63;1.10;;;0.30;99.90;;;-1.31;88.33;100454.22;4887937;28;20612;-81
2024/01/05 02:53:51;;;;;;;3.53;1.20;;;0.40;99.90;;;-1.29;88.84;100449.91;4879572;28;20071;-81
2024/01/05 02:56:28;;;;;;;3.70;0.95;;;0.40;99.90;;;-1.25;88.78;100454.22;4874906;28;20118;-83
2024/01/05 02:58:54;;;;;;;1.80;0.82;;;0.30;99.90;;;-1.27;89.06;100445.63;4887543;28;20035;-81
2024/01/05 03:01:20;;;;;;;1.52;0.90;;;0.40;99.90;;;-1.27;88.97;100448.19;4887743;28;20095;-81
2024/01/05 03:03:47;;;;;;;4.28;1.08;;;0.40;99.90;;;-1.27;88.87;100449.06;4896253;28;20038;-82
2024/01/05 03:06:19;;;;;;;2.72;1.08;;;0.40;99.90;;;-1.23;89.11;100447.31;4877912;28;20042;-82
2024/01/05 03:08:45;;;;;;;1.30;0.90;;;0.40;99.90;;;-1.22;89.21;100443.88;4912428;28;20052;-82
2024/01/05 03:11:21;;;;;;;;;;;;;;;;;;;;;
2024/01/05 03:13:47;;;;;;;1.75;0.80;;;0.40;99.90;;;-1.13;89.36;100440.38;4837770;28;20560;-81
2024/01/05 03:16:16;;;;;;;2.08;0.95;;;0.50;99.90;;;-1.16;89.48;100440.41;4887819;28;20044;-81
2024/01/05 03:18:50;;;;;;;4.40;1.00;;;0.50;99.90;;;-1.24;88.73;100430.09;4901080;28;20073;-81
2024/01/05 03:21:19;;;;;;;3.83;1.00;;;0.30;99.90;;;-1.31;88.69;100431.84;4867084;28;20037;-83
2024/01/05 03:23:44;;;;;;;2.10;1.10;;;0.40;99.90;;;-1.35;88.56;100426.69;4895502;28;20120;-82
2024/01/05 03:26:10;;;;;;;2.20;0.90;;;0.40;99.90;;;-1.32;88.17;100426.66;4909405;28;20516;-82
2024/01/05 03:28:47;;;;;;;6.28;1.33;;;0.40;99.90;;;-1.34;88.51;100423.22;4899472;28;20101;-82
2024/01/05 03:31:16;;;;;;;2.78;1.10;;;0.40;99.90;;;-1.31;88.55;100418.06;4917820;28;20042;-82
2024/01/05 03:33:51;;;;;;;3.03;1.00;;;0.40;99.90;;;-1.29;88.76;100416.34;4890070;28;20033;-82
2024/01/05 03:36:20;;;;;;;2.72;1.20;;;0.40;99.90;;;-1.30;88.65;100419.78;4923570;28;20093;-83
2024/01/05 03:38:57;;;;;;;3.72;1.00;;;0.40;99.90;;;-1.38;88.34;100424.97;4952474;28;20075;-82
2024/01/05 03:41:31;;;;;;;2.13;0.88;;;0.30;99.90;;;-1.37;88.72;100424.09;4931959;28;20188;-82
2024/01/05 03:43:59;;;;;;;1.80;0.90;;;0.30;99.90;;;-1.38;88.17;100426.69;4863702;28;20047;-83
2024/01/05 03:46:27;;;;;;;3.33;1.02;;;0.30;99.90;;;-1.36;88.01;100424.94;4919858;28;20510;-83
2024/01/05 03:49:19;;;;;;;2.67;1.02;;;0.30;99.90;;;-1.34;87.38;100425.81;4910358;28;20046;-81
2024/01/05 03:51:47;;;;;;;2.80;1.02;;;0.30;99.90;;;-1.33;87.64;100425.81;4925431;28;20042;-82
2024/01/05 03:54:19;;;;;;;4.45;1.25;;;0.40;99.90;;;-1.35;87.61;100427.53;4908853;28;20053;-81
2024/01/05 03:56:47;;;;;;;1.70;0.90;;;0.30;99.90;;;-1.30;87.53;100435.28;4890636;28;20031;-83
2024/01/05 03:59:41;;;;;;;4.20;1.08;;;0.30;99.90;;;-1.27;87.80;100432.69;4882229;28;20038;-84
2024/01/05 04:02:09;;;;;;;3.50;1.15;;;0.40;99.90;;;-1.25;87.75;100428.38;4897698;28;20492;-83
2024/01/05 04:04:35;;;;;;;5.97;1.30;;;0.40;99.90;;;-1.23;87.97;100424.06;4901958;28;20115;-81
2024/01/05 04:07:06;;;;;;;5.00;1.30;;;0.40;99.90;;;-1.22;87.76;100420.63;4889062;28;20043;-81
2024/01/05 04:09:32;;;;;;;3.72;1.20;;;0.40;99.90;;;-1.21;88.26;100419.72;4942358;28;20392;-83
2024/01/05 04:11:58;;;;;;;3.72;1.50;;;0.40;99.90;;;-1.21;88.02;100414.56;4909556;28;20049;-81
2024/01/05 04:14:27;;;;;;;7.15;2.42;;;0.40;99.90;;;-1.18;88.35;100427.50;4916280;28;20553;-83
2024/01/05 04:17:00;;;;;;;2.97;1.33;;;0.40;99.90;;;-1.18;88.43;100421.47;4858992;28;20122;-81
2024/01/05 04:19:29;;;;;;;3.75;2.17;;;0.40;99.90;;;-1.23;88.62;100416.31;4868637;28;20581;-83
2024/01/05 04:22:07;;;;;;;3.35;1.75;;;0.40;99.90;;;-1.22;88.40;100422.34;4904551;28;20108;-82
2024/01/05 04:24:35;;;;;;;4.13;1.38;;;0.40;99.90;;;-1.22;88.63;100415.44;4923733;28;20059;-81
2024/01/05 04:27:09;;;;;;;1.48;1.02;;;0.40;99.90;;;-1.20;88.93;100418.03;4867802;28;20043;-81
2024/01/05 04:29:38;;;;;;;2.80;1.35;;;0.50;99.90;;;-1.18;89.00;100414.56;4873359;28;20031;-83
2024/01/05 04:32:16;;;;;;;3.95;1.30;;;;;;;-1.18;89.51;100424.06;4896704;28;20039;-83
2024/01/05 04:34:50;;;;;;;7.10;2.05;;;0.40;99.90;;;-1.22;89.33;100423.19;4884725;28;20086;-82
2024/01/05 04:37:18;;;;;;;4.68;1.25;;;0.40;99.90;;;-1.26;88.81;100421.47;4877264;28;20037;-83
2024/01/05 04:39:44;;;;;;;2.45;1.20;;;0.40;99.90;;;-1.29;89.10;100419.78;4918345;28;20439;-81
2024/01/05 04:42:19;;;;;;;2.50;1.33;;;0.40;99.90;;;-1.27;88.79;100422.38;4907318;28;20053;-81
2024/01/05 04:44:47;;;;;;;5.57;1.50;;;;;;;-1.26;88.56;100422.34;4885389;28;20410;-83
2024/01/05 04:47:23;;;;;;;;;;;;;;;;;;;;;
2024/01/05 04:49:49;;;;;;;3.53;0.95;;;0.40;99.90;;;-1.24;88.98;100424.94;4878673;28;20692;-82
2024/01/05 04:52:17;;;;;;;4.22;1.50;;;0.40;99.90;;;-1.24;88.32;100422.34;4869056;28;20039;-83
2024/01/05 04:54:43;;;;;;;6.55;1.35;;;0.40;99.90;;;-1.24;88.69;100423.19;4919381;28;20050;-81
2024/01/05 04:57:32;;;;;;;2.40;0.90;;;0.40;99.90;;;-1.23;88.46;100418.91;4907479;28;20061;-82
2024/01/05 04:59:58;;;;;;;2.60;1.10;;;0.40;99.90;;;-1.23;88.62;100421.50;4908989;28;20042;-82
2024/01/05 05:02:26;;;;;;;4.05;1.13;;;;;;;-1.23;87.85;100416.31;4864547;28;20445;-83
2024/01/05 05:05:00;;;;;;;2.53;1.02;;;0.40;99.90;;;-1.23;88.28;100426.66;4926526;28;20588;-82
2024/01/05 05:07:26;;;;;;;1.83;1.10;;;0.40;99.90;;;-1.21;87.81;100419.72;4912530;28;20193;-83
2024/01/05 05:09:54;;;;;;;3.20;1.42;;;0.40;99.90;;;-1.22;87.82;100417.19;4902112;28;20535;-82
2024/01/05 05:12:20;;;;;;;1.95;1.10;;;0.40;99.90;;;-1.21;88.11;100419.72;4852723;28;20037;-82
2024/01/05 05:14:57;;;;;;;3.50;1.30;;;0.40;99.90;;;-1.20;86.97;100423.19;4878847;28;20040;-83
2024/01/05 05:20:18;;;;;;;4.55;1.08;;;0.40;99.90;;;-1.21;87.34;100427.47;4922987;28;20042;-83
2024/01/05 05:23:03;;;;;;;;;;;;;;;;;;;;;
2024/01/05 05:25:40;;;;;;;3.20;1.10;;;;;;;-1.21;87.63;100430.06;4899864;28;21851;-83
2024/01/05 05:28:26;;;;;;;2.63;0.93;;;0.40;99.90;;;-1.25;87.05;100426.66;4901084;28;20038;-84
2024/01/05 05:30:52;;;;;;;2.10;0.90;;;;;;;-1.26;86.76;100431.81;4900195;28;20038;-83
2024/01/05 05:33:19;;;;;;;1.92;0.80;;;0.40;99.90;;;-1.29;86.22;100424.94;4916038;28;21557;-82
2024/01/05 05:35:48;;;;;;;1.60;0.85;;;0.40;99.90;;;-1.29;85.89;100412.03;4900786;28;20022;-84
2024/01/05 05:38:32;;;;;;;;;;;;;;;;;;;;;
2024/01/05 05:40:59;;;;;;;1.58;0.80;;;0.30;99.90;;;-1.33;85.70;100412.03;4890612;28;20902;-81
2024/01/05 05:43:39;;;;;;;7.75;1.58;;;0.30;99.90;;;-1.37;86.11;100407.75;4871341;28;20045;-83
2024/01/05 05:46:08;;;;;;;3.28;2.00;;;0.30;99.90;;;-1.44;85.51;100404.31;4934236;28;20044;-82
2024/01/05 05:48:51;;;;;;;5.63;2.38;;;0.20;99.90;;;-1.49;85.54;100395.72;4934137;28;20054;-82
2024/01/05 05:51:26;;;;;;;1.95;1.33;;;;;;;-1.55;85.10;100391.44;4881700;28;20036;-82
2024/01/05 05:54:19;;;;;;;4.97;1.50;;;0.10;99.90;;;-1.62;85.12;100386.28;4893132;28;20101;-82
2024/01/05 05:56:48;;;;;;;2.47;0.88;;;0.00;99.90;;;-1.69;84.28;100382.84;4891183;28;20049;-83
2024/01/05 05:59:14;;;;;;;2.13;0.90;;;;;;;-1.75;84.31;100385.44;4873231;28;20034;-81
2024/01/05 06:01:40;;;;;;;1.13;0.70;;;-0.10;99.90;;;-1.80;83.99;100385.44;4922710;28;20046;-82
2024/01/05 06:04:13;;;;;;;1.02;0.60;;;-0.20;99.90;;;-1.86;84.39;100385.47;4912126;28;20870;-83
2024/01/05 06:06:39;;;;;;;1.08;0.70;;;-0.20;99.90;;;-1.92;83.73;100388.94;4917043;28;20038;-82
2024/01/05 06:09:07;;;;;;;2.83;0.80;;;-0.20;99.90;;;-2.02;83.41;100387.22;4911559;28;20077;-83
2024/01/05 06:12:10;;;;;;;4.65;1.05;;;-0.30;99.90;;;-2.07;83.44;100397.53;4841784;28;20046;-82
2024/01/05 06:14:28;;;;;;;1.20;0.57;;;-0.30;99.90;;;-2.06;82.91;100408.69;4887226;28;20529;-82
2024/01/05 06:17:00;;;;;;;1.70;0.73;;;-0.40;99.90;;;-2.09;82.89;100406.13;4871618;28;20041;-83
2024/01/05 06:19:28;;;;;;;2.75;0.85;;;-0.40;99.90;;;-2.08;83.02;100418.16;4887611;28;20059;-83
2024/01/05 06:22:04;;;;;;;;;;;;;;;;;;;;;
2024/01/05 06:24:30;;;;;;;2.50;1.00;;;-0.40;99.90;;;-2.04;83.47;100419.88;4893989;28;20454;-81
2024/01/05 06:26:59;;;;;;;1.38;0.60;;;-0.40;99.90;;;-2.03;83.31;100436.22;4876966;28;20086;-82
2024/01/05 06:29:48;;;;;;;1.98;1.02;;;-0.40;99.90;;;-2.03;83.64;100428.47;4888194;28;20034;-82
2024/01/05 06:32:31;;;;;;;2.83;1.25;;;-0.40;99.90;;;-2.04;83.01;100419.88;4890797;28;20643;-83
2024/01/05 06:34:57;;;;;;;2.47;1.08;;;-0.30;99.90;;;-2.00;83.96;100426.78;4872850;28;20063;-82
2024/01/05 06:37:30;;;;;;;5.05;1.35;;;-0.30;99.90;;;-1.94;83.73;100421.59;4858604;28;20053;-83
2024/01/05 06:39:59;;;;;;;2.20;1.27;;;-0.30;99.90;;;-1.91;83.67;100426.75;4896226;28;20253;-83
2024/01/05 06:42:28;;;;;;;2.03;1.10;;;-0.20;99.90;;;-1.83;83.79;100431.06;4897324;28;20043;-82
2024/01/05 06:45:17;;;;;;;1.63;1.02;;;-0.10;99.90;;;-1.81;83.96;100430.22;4883917;28;20090;-83
2024/01/05 06:47:48;;;;;;;2.55;1.35;;;-0.10;99.90;;;-1.77;84.61;100428.47;4883787;28;20039;-82
2024/01/05 06:50:20;;;;;;;2.42;1.42;;;-0.10;99.90;;;-1.76;84.77;100420.72;4926561;28;20057;-83
2024/01/05 06:52:48;;;;;;;2.22;1.20;;;0.00;99.90;;;-1.79;84.88;100413.00;4897432;28;20347;-82
2024/01/05 06:56:12;;;;;;;;;;;;;;;;;;;;;
2024/01/05 06:58:38;;;;;;;6.82;1.90;;;0.00;99.90;;;-1.72;84.84;100406.97;4914032;28;20038;-82
2024/01/05 07:01:04;;;;;;;5.53;1.55;;;0.00;99.90;;;-1.68;85.37;100402.66;4941287;28;20053;-81
2024/01/05 07:03:30;;;;;;;7.05;1.60;;;0.00;99.90;;;-1.64;85.36;100409.53;4931434;28;20054;-81
2024/01/05 07:06:19;;;;;;;2.97;1.50;;;0.00;99.90;;;-1.61;86.22;100404.34;4891698;28;20038;-82
2024/01/05 07:08:47;;;;;;;1.88;1.17;;;0.10;99.90;;;-1.61;86.24;100396.63;4895237;28;20061;-83
2024/01/05 07:11:28;;;;;;;1.88;1.10;;;;;;;-1.57;85.57;100400.91;4912648;28;20045;-82
2024/01/05 07:14:06;;;;;;;;;;;;;;;;;;;;;
2024/01/05 07:16:50;;;;;;;3.17;1.40;;;0.10;99.90;;;-1.54;85.57;100403.47;4892968;28;21550;-81
2024/01/05 07:19:27;;;;;;;3.67;1.00;;;0.20;99.90;;;-1.54;85.67;100400.88;4909801;28;20622;-82
2024/01/05 07:22:06;;;;;;;;;;;;;;;;;;;;;
2024/01/05 07:24:35;;;;;;;6.20;1.40;;;0.20;99.90;;;-1.51;85.82;100405.19;4899496;28;20686;-82
2024/01/05 07:27:10;;;;;;;3.25;1.25;;;0.20;99.90;;;-1.47;85.78;100412.06;4927563;28;20188;-80
2024/01/05 07:29:40;;;;;;;5.22;1.20;;;0.20;99.90;;;-1.50;85.47;100399.16;4876199;28;20042;-83
2024/01/05 07:32:11;;;;;;;2.05;1.20;;;0.20;99.90;;;-1.49;85.33;100408.63;4892768;28;20043;-83
2024/01/05 07:34:40;;;;;;;2.95;1.00;;;0.20;99.90;;;-1.51;84.92;100405.19;4911555;28;20074;-83
2024/01/05 07:37:37;;;;;;;2.45;1.10;;;0.10;99.90;;;-1.50;85.16;100406.91;4874562;28;20525;-83
2024/01/05 07:40:04;;;;;;;3.45;1.10;;;0.20;99.90;;;-1.51;84.53;100406.06;4881399;28;20047;-81
2024/01/05 07:42:40;;;;;;;4.30;0.90;;;0.20;99.90;;;-1.49;84.46;100426.69;4869495;28;20536;-81
2024/01/05 07:45:18;;;;;;;6.03;1.20;;;0.20;99.90;;;-1.52;85.20;100430.16;4870476;28;20044;-82
2024/01/05 07:47:57;;;;;;;;;;;;;;;;;;;;;
2024/01/05 07:50:39;;;;;;;3.65;1.52;;;;;;;-1.41;85.20;100442.19;4892154;28;20489;-83
2024/01/05 07:53:07;;;;;;;6.20;2.28;;;0.30;99.90;;;-1.39;85.16;100464.56;4918134;28;20053;-82
2024/01/05 07:55:52;;;;;;;;;;;;;;;;;;;;;
2024/01/05 07:58:19;;;;;;;9.95;2.00;;;;;;;-1.36;85.00;100435.28;4878804;28;20434;-82
2024/01/05 08:00:50;;;;;;;3.47;1.70;;;0.30;99.90;;;-1.34;85.00;100438.72;4892822;28;20054;-83
2024/01/05 08:03:39;;;;;;;3.30;1.75;;;0.40;99.90;;;-1.35;85.21;100437.00;4899278;28;20081;-82
2024/01/05 08:06:39;;;;;;;3.30;1.20;;;0.40;99.90;;;-1.32;84.58;100440.47;4892282;28;20520;-84
2024/01/05 08:09:08;;;;;;;2.42;1.30;;;0.40;99.90;;;-1.30;84.21;100441.28;4868015;29;20063;-83
2024/01/05 08:11:47;;;;;;;4.47;1.40;;;0.40;99.90;;;-1.25;84.01;100449.91;4880119;28;20099;-82
2024/01/05 08:14:20;;;;;;;4.05;1.40;;;0.40;99.90;;;-1.24;84.20;100454.19;4857389;28;20047;-81
2024/01/05 08:16:48;;;;;;;3.88;1.50;;;0.40;99.90;;;-1.21;84.76;100453.31;4860668;28;20040;-83
2024/01/05 08:19:38;;;;;;;5.53;1.63;;;;;;;-1.16;84.95;100455.91;4951323;23;20042;-83
2024/01/05 08:22:08;;;;;;;2.38;1.20;;;0.50;99.90;;;-1.12;85.22;100462.81;4858665;28;20573;-82
2024/01/05 08:25:00;;;;;;;6.15;1.55;;;0.50;99.90;;;-1.12;85.24;100463.66;4827815;28;20028;-82
2024/01/05 08:27:29;;;;;;;1.80;0.90;;;0.50;99.90;;;-1.10;84.63;100458.44;4857037;28;20524;-82
2024/01/05 08:30:12;;;;;;;2.60;0.90;;;0.60;99.90;;;-1.08;84.90;100467.94;4841998;28;20050;-82
2024/01/05 08:33:00;;;;;;;3.33;1.38;;;0.60;99.90;;;-1.01;84.81;100465.34;4854709;28;20045;-82
2024/01/05 08:35:28;;;;;;;2.47;1.10;;;0.60;99.90;;;-0.99;84.49;100467.06;4810102;28;20079;-82
2024/01/05 08:38:08;;;;;;;4.32;1.05;;;0.70;99.90;;;-0.96;84.72;100461.00;4898761;23;20050;-84
2024/01/05 08:40:52;;;;;;;1.88;1.02;;;;;;;-0.92;84.70;100480.81;4942739;28;20407;-82
2024/01/05 08:43:59;;;;;;;4.80;1.00;;;0.70;99.90;;;-0.90;85.17;100474.78;4914920;28;20054;-81
2024/01/05 08:49:19;;;;;;;4.03;0.90;;;0.80;99.90;;;-0.85;84.77;100487.69;4929374;28;20028;-82
2024/01/05 08:51:48;;;;;;;1.80;1.00;;;;;;;-0.86;84.09;100485.97;4905223;28;20038;-83
2024/01/05 08:54:32;;;;;;;;;;;;;;;;;;;;;
2024/01/05 08:56:58;;;;;;;1.67;0.60;;;0.80;99.90;;;-0.85;82.79;100488.53;4922814;28;20629;-82
2024/01/05 08:59:43;;;;;;;1.33;0.70;;;0.80;99.90;;;-0.85;82.99;100482.50;4987786;23;20059;-83
2024/01/05 09:02:10;;;;;;;1.63;0.80;;;0.80;99.90;;;-0.81;82.92;100478.19;4908325;28;20497;-82
2024/01/05 09:04:59;;;;;;;1.05;0.68;;;;;;;-0.74;82.75;100487.63;4930151;28;20461;-83
2024/01/05 09:07:39;;;;;;;2.17;0.93;;;0.90;99.90;;;-0.73;82.96;100485.06;4931425;28;20092;-82
2024/01/05 09:10:09;;;;;;;2.30;0.98;;;;;;;-0.68;83.17;100488.47;4925197;28;20105;-82
2024/01/05 09:15:30;;;;;;;3.40;0.98;;;1.00;99.90;;;-0.63;82.21;100503.94;4958890;28;20746;-82
2024/01/05 09:18:19;;;;;;;4.80;1.10;;;1.00;99.90;;;-0.60;82.21;100500.50;4921784;23;20317;-84
2024/01/05 09:21:02;;;;;;;2.20;1.00;;;1.10;99.90;;;-0.60;82.05;100508.25;4909031;28;20531;-82
2024/01/05 09:23:29;;;;;;;5.85;1.10;;;;;;;-0.56;81.22;100509.97;4939945;28;20146;-82
2024/01/05 09:26:39;;;;;;;4.18;1.33;;;1.10;99.90;;;-0.58;81.09;100498.75;5005553;28;20068;-82
2024/01/05 09:29:32;;;;;;;2.55;1.15;;;1.00;99.90;;;-0.61;80.64;100507.41;4904085;28;20031;-81
2024/01/05 09:32:03;;;;;;;2.50;1.40;;;1.00;99.90;;;-0.59;80.60;100512.56;4879666;28;20039;-81
2024/01/05 09:34:38;;;;;;;6.18;0.90;;;1.10;99.90;;;-0.55;80.97;100516.88;4885700;28;20053;-81
2024/01/05 09:39:48;;;;;;;2.40;1.00;;;1.10;99.90;;;-0.49;81.49;100507.34;5026824;23;20124;-81
2024/01/05 09:42:22;;;;;;;3.97;1.23;;;1.10;99.90;;;-0.45;81.87;100506.47;4931925;28;20532;-86
2024/01/05 09:44:52;;;;;;;2.72;1.27;;;;;;;-0.49;81.54;100504.75;4933447;28;20054;-85
2024/01/05 09:47:28;;;;;;;4.70;2.03;;;1.20;99.90;;;-0.47;81.40;100502.19;4952701;28;20120;-81
2024/01/05 09:50:21;;;;;;;16.17;6.80;;;1.10;99.90;;;-0.45;80.75;100515.97;5008741;28;20056;-87
2024/01/05 09:52:50;;;;;;;5.43;1.90;;;1.20;99.90;;;-0.46;80.96;100509.91;4941993;28;20157;-80
2024/01/05 09:55:27;;;;;;;2.92;1.17;;;1.20;99.90;;;-0.44;80.53;100497.81;4977609;28;20029;-81
2024/01/05 09:57:53;;;;;;;1.55;0.90;;;1.20;99.90;;;-0.45;80.08;100501.28;5005522;22;20525;-80
2024/01/05 10:00:28;;;;;;;1.05;0.60;;;;;;;-0.45;79.99;100508.19;4893478;28;20121;-81
2024/01/05 10:03:10;;;;;;;2.15;0.98;;;1.20;99.90;;;-0.43;79.47;100496.13;4945563;28;20594;-80
2024/01/05 10:05:36;;;;;;;4.72;1.05;;;1.20;99.90;;;-0.45;79.03;100488.38;4933708;28;20046;-79
2024/01/05 10:08:13;;;;;;;2.83;0.90;;;1.20;99.90;;;-0.40;78.25;100492.66;4955767;28;20080;-78
2024/01/05 10:10:56;;;;;;;3.65;0.85;;;1.20;99.90;;;-0.41;78.82;100494.38;4955422;28;20034;-78
2024/01/05 10:13:23;;;;;;;0.93;0.65;;;1.20;99.90;;;-0.43;77.54;100490.94;4953539;28;20068;-77
2024/01/05 10:16:02;;;;;;;2.05;0.90;;;1.20;99.90;;;-0.37;77.70;100479.69;4949907;28;20141;-78
2024/01/05 10:18:35;;;;;;;1.13;0.80;;;1.30;99.90;;;-0.34;77.87;100480.53;4944833;28;20050;-78
2024/01/05 10:21:15;;;;;;;1.63;0.90;;;1.30;99.90;;;-0.32;77.44;100489.16;4924485;28;20512;-77
2024/01/05 10:23:42;;;;;;;3.80;1.92;;;1.30;99.90;;;-0.27;77.29;100489.97;4958321;28;20042;-77
2024/01/05 10:26:25;;;;;;;2.55;1.20;;;1.30;99.90;;;-0.25;77.75;100493.41;4973801;28;20046;-78
2024/01/05 10:29:11;;;;;;;5.85;1.27;;;1.40;99.90;;;-0.25;76.30;100498.59;4943280;28;20061;-77
2024/01/05 10:31:40;;;;;;;1.25;0.77;;;1.40;99.90;;;-0.19;76.81;100496.81;4951672;28;20149;-80
2024/01/05 10:34:10;;;;;;;2.40;1.10;;;1.40;99.90;;;-0.15;77.02;100486.47;4922967;28;20047;-79
2024/01/05 10:36:45;;;;;;;3.13;1.38;;;1.40;99.90;;;-0.15;76.66;100502.00;4961973;28;20034;-77
2024/01/05 10:39:22;;;;;;;13.93;4.10;;;1.40;99.90;;;-0.19;75.95;100502.88;4925840;28;20037;-78
2024/01/05 10:41:47;;;;;;;2.50;1.30;;;1.40;99.90;;;-0.13;75.25;100497.66;4935844;28;20052;-77
2024/01/05 10:44:16;;;;;;;3.50;1.63;;;1.50;99.90;;;-0.06;75.38;100503.66;4949605;28;20066;-76
2024/01/05 10:46:51;;;;;;;5.63;2.60;;;1.50;99.90;;;-0.02;75.10;100501.03;4956651;28;20087;-77
2024/01/05 10:49:18;;;;;;;5.97;3.20;;;1.60;99.90;;;0.08;75.21;100498.38;4961762;28;20035;-77
2024/01/05 10:51:47;;;;;;;6.00;2.63;;;1.70;99.90;;;0.16;75.13;100504.38;4929116;28;20031;-77
2024/01/05 10:54:21;;;;;;;4.13;1.95;;;1.70;99.90;;;0.23;75.11;100511.22;4947220;28;20177;-77
2024/01/05 10:56:55;;;;;;;1.70;0.95;;;1.80;99.90;;;0.22;74.94;100514.69;4963170;28;20046;-78
2024/01/05 10:59:24;;;;;;;6.25;1.77;;;1.80;99.90;;;0.24;74.91;100504.28;4981648;23;20048;-78
2024/01/05 11:01:53;;;;;;;4.72;1.80;;;1.80;99.90;;;0.16;74.22;100499.19;4959340;28;20157;-77
2024/01/05 11:04:27;;;;;;;3.50;1.95;;;1.70;99.90;;;0.06;73.62;100502.72;4976208;28;20093;-78
2024/01/05 11:06:54;;;;;;;3.10;1.63;;;1.70;99.90;;;0.06;74.38;100497.53;5002697;28;20027;-78
2024/01/05 11:09:45;;;;;;;2.38;1.50;;;1.70;99.90;;;0.07;74.54;100484.59;5001253;28;20526;-78
2024/01/05 11:12:53;;;;;;;2.13;1.10;;;1.70;99.90;;;0.04;74.81;100488.91;4967222;28;20079;-78
2024/01/05 11:16:01;;;;;;;5.53;0.95;;;1.60;99.90;;;-0.08;74.00;100484.69;4900659;28;20082;-78
2024/01/05 11:19:22;;;;;;;2.47;0.88;;;1.60;99.90;;;-0.15;73.78;100483.88;4879016;29;20039;-78
2024/01/05 11:22:08;;;;;;;7.45;3.25;;;1.50;99.90;;;-0.20;73.44;100485.63;4881091;29;20055;-79
2024/01/05 11:25:02;;;;;;;2.47;0.93;;;1.40;99.90;;;-0.24;73.84;100476.16;4892671;29;20459;-81